Latest Weather Observations for Renmark Airport

IDS60801

Issued at 8:01 am CDT Friday 20 January 2017 (issued every 30 minutes, with the page automatically refreshed every 10 minutes)

About weather observations | Map of weather stations | Latest weather observations for SA | Other Formats
Station Details ID: 024048 Name: RENMARK AERO Lat: -34.20 Lon: 140.68 Height: 31.5 m
Data from the previous 72 hours. | See also: Recent months at Renmark Airport
Date/Time
CDT
Temp
°C
App
Temp
°C
Dew
Point
°C
Rel
Hum
%
Delta-T
°C
Wind Press
QNH
hPa
Press
MSL
hPa
Rain since
9am
mm
Dir  Spd
km/h
Gust
km/h
Spd
kts
Gust
kts
20/08:00am 20.5 18.1 19.2 92 0.8 SW 30 50 16 27 1000.7 1000.5 16.4
20/07:57am 20.6 18.8 20.4 99 0.1 SW 30 48 16 26 1000.7 1000.5 16.4
20/07:42am 20.8 19.2 20.8 100 0.0 SW 30 44 16 24 1000.3 1000.1 16.4
20/07:30am 21.2 20.2 21.2 100 0.0 SW 28 43 15 23 1000.1 999.9 16.4
20/07:28am 21.3 20.3 21.3 100 0.0 SW 28 43 15 23 1000.0 999.8 16.4
20/07:11am 21.4 21.6 21.4 100 0.0 WSW 22 32 12 17 999.4 999.2 16.4
20/07:00am 21.5 21.4 21.5 100 0.0 WSW 24 33 13 18 999.1 998.9 16.4
20/06:59am 21.5 21.4 21.5 100 0.0 WSW 24 33 13 18 999.1 998.9 16.4
20/06:30am 21.8 22.6 21.8 100 0.0 WSW 20 32 11 17 998.5 998.3 16.4
20/06:25am 21.8 22.6 21.8 100 0.0 WSW 20 28 11 15 998.5 998.3 16.2
20/06:00am 22.1 24.0 22.1 100 0.0 WSW 15 20 8 11 997.8 997.6 15.8
20/05:33am 22.4 24.1 22.4 100 0.0 WSW 17 28 9 15 997.2 997.0 15.8
20/05:30am 22.6 24.4 22.6 100 0.0 W 17 28 9 15 997.3 997.1 15.8
20/05:26am 22.8 24.4 22.8 100 0.0 WNW 19 28 10 15 997.3 997.1 15.8
20/05:00am 23.9 24.8 23.9 100 0.0 WNW 26 39 14 21 997.4 997.2 10.2
20/04:35am 24.5 26.5 24.5 100 0.0 NW 22 33 12 18 997.3 997.1 7.0
20/04:30am 24.8 27.3 24.8 100 0.0 NW 20 26 11 14 997.4 997.2 6.4
20/04:00am 24.9 27.5 24.9 100 0.0 NW 20 26 11 14 997.4 997.2 6.2
20/03:30am 24.9 28.1 24.9 100 0.0 WNW 17 22 9 12 997.7 997.5 6.2
20/03:00am 24.8 27.9 24.8 100 0.0 WNW 17 24 9 13 997.5 997.3 6.2
20/02:30am 24.7 28.5 24.7 100 0.0 NW 13 17 7 9 996.9 996.7 6.2
20/02:00am 24.7 28.9 24.7 100 0.0 NNW 11 15 6 8 996.6 996.4 6.2
20/01:30am 24.4 28.0 24.4 100 0.0 NW 13 17 7 9 997.7 997.5 6.2
20/01:00am 24.4 29.3 24.4 100 0.0 NNW 6 9 3 5 998.4 998.2 6.2
20/12:30am 24.3 29.0 24.3 100 0.0 NNW 7 11 4 6 999.4 999.2 6.0
20/12:01am 24.0 27.0 24.0 100 0.0 W 15 26 8 14 1000.5 1000.3 6.0
20/12:00am 23.8 26.3 23.8 100 0.0 W 17 28 9 15 1000.6 1000.4 6.0
 
Date/Time
CDT
Temp
°C
App
Temp
°C
Dew
Point
°C
Rel
Hum
%
Delta-T
°C
Wind Press
QNH
hPa
Press
MSL
hPa
Rain since
9am
mm
Dir  Spd
km/h
Gust
km/h
Spd
kts
Gust
kts
19/11:37pm 24.1 23.4 24.1 100 0.0 WSW 35 59 19 32 1000.1 999.9 2.4
19/11:35pm 24.5 24.4 24.5 100 0.0 WSW 33 59 18 32 1000.0 999.8 1.6
19/11:30pm 26.8 26.9 21.8 74 3.4 W 24 46 13 25 999.4 999.2 0.8
19/11:28pm 26.7 27.7 22.1 76 3.1 WNW 20 46 11 25 999.6 999.4 0.8
19/11:00pm 26.6 31.5 24.6 89 1.4 NW 7 9 4 5 998.1 997.9 0.6
19/10:30pm 27.9 26.9 18.9 58 5.8 WNW 22 32 12 17 999.0 998.8 0.0
19/10:00pm 32.4 31.3 12.1 29 12.0 N 9 11 5 6 998.0 997.8 0.0
19/09:30pm 32.3 30.8 10.4 26 12.7 NNE 9 11 5 6 997.6 997.4 0.0
19/09:00pm 32.9 31.3 10.3 25 13.1 ENE 9 17 5 9 998.0 997.8 0.0
19/08:30pm 33.4 31.4 10.1 24 13.5 ENE 11 15 6 8 998.2 998.0 0.0
19/08:00pm 34.4 32.1 10.3 23 14.0 E 13 19 7 10 998.3 998.1 0.0
19/07:30pm 35.4 32.9 9.7 21 14.9 E 13 17 7 9 998.7 998.5 0.0
19/07:00pm 35.4 32.7 9.0 20 15.1 E 13 19 7 10 999.1 998.9 0.0
19/06:30pm 36.4 32.8 8.3 18 16.0 E 17 22 9 12 999.5 999.3 0.0
19/06:00pm 36.3 33.8 8.2 18 16.0 ENE 11 19 6 10 1000.2 1000.0 0.0
19/05:30pm 36.8 32.9 6.9 16 16.7 E 17 20 9 11 1000.8 1000.6 0.0
19/05:00pm 35.2 32.1 7.3 18 15.5 ENE 13 19 7 10 1001.4 1001.2 0.0
19/04:30pm 34.6 31.6 6.0 17 15.6 ENE 11 20 6 11 1002.2 1002.0 0.0
19/04:00pm 35.7 32.3 6.0 16 16.2 ENE 13 19 7 10 1003.0 1002.9 0.0
19/03:30pm 34.2 30.0 5.7 17 15.4 NE 17 24 9 13 1004.0 1003.9 0.0
19/03:00pm 33.6 30.2 6.0 18 15.0 ENE 13 20 7 11 1005.0 1004.9 0.0
19/02:30pm 33.7 30.2 5.3 17 15.2 NE 13 22 7 12 1005.7 1005.6 0.0
19/02:00pm 33.2 29.6 4.9 17 15.0 NE 13 26 7 14 1006.3 1006.2 0.0
19/01:30pm 31.6 27.5 4.4 18 14.2 NE 15 28 8 15 1006.8 1006.7 0.0
19/01:00pm 30.5 26.0 4.3 19 13.5 NNE 17 24 9 13 1007.5 1007.4 0.0
19/12:30pm 29.1 24.0 3.1 19 13.1 NE 19 28 10 15 1008.2 1008.1 0.0
19/12:00pm 29.5 25.6 3.5 19 13.2 E 13 20 7 11 1008.6 1008.5 0.0
19/11:30am 28.1 24.0 2.3 19 12.7 ENE 13 20 7 11 1009.2 1009.1 0.0
19/11:00am 27.3 22.8 2.4 20 12.2 ENE 15 22 8 12 1009.6 1009.5 0.0
19/10:30am 26.1 21.2 2.1 21 11.6 ENE 17 20 9 11 1010.0 1009.9 0.0
19/10:00am 25.4 20.3 2.8 23 11.0 E 19 26 10 14 1010.3 1010.2 0.0
19/09:30am 24.5 19.3 2.6 24 10.6 E 19 24 10 13 1010.5 1010.4 0.0
19/09:00am 23.0 17.7 3.0 27 9.6 E 20 26 11 14 1010.8 1010.7 0.0
19/08:30am 21.9 18.0 5.3 34 8.3 E 15 20 8 11 1010.9 1010.8 0.0
19/08:00am 20.6 16.5 6.2 39 7.2 E 17 26 9 14 1010.8 1010.7 0.0
19/07:30am 19.9 17.4 6.6 42 6.7 E 9 13 5 7 1011.1 1011.0 0.0
19/07:00am 19.0 16.4 6.2 43 6.4 E 9 11 5 6 1011.1 1011.0 0.0
19/06:30am 18.9 15.9 6.1 43 6.3 E 11 15 6 8 1010.5 1010.4 0.0
19/06:00am 18.0 15.6 6.8 48 5.6 SE 9 13 5 7 1010.4 1010.3 0.0
19/05:30am 18.1 15.7 6.9 48 5.6 SE 9 11 5 6 1010.5 1010.4 0.0
19/05:00am 18.1 16.3 7.8 51 5.2 SE 7 9 4 5 1010.5 1010.4 0.0
19/04:30am 18.4 16.6 8.1 51 5.3 SSE 7 11 4 6 1010.4 1010.3 0.0
19/04:00am 18.8 16.8 8.7 52 5.3 SSE 9 13 5 7 1010.4 1010.3 0.0
19/03:30am 19.4 17.5 9.0 51 5.5 S 9 11 5 6 1010.3 1010.2 0.0
19/03:00am 19.6 17.3 8.9 50 5.6 S 11 15 6 8 1010.6 1010.5 0.0
19/02:30am 19.8 17.4 8.5 48 5.9 S 11 15 6 8 1011.0 1010.9 0.0
19/02:00am 20.3 17.4 8.0 45 6.4 S 13 15 7 8 1011.3 1011.2 0.0
19/01:30am 20.2 19.4 8.2 46 6.2 SW 2 6 1 3 1011.6 1011.5 0.0
19/01:00am 20.8 18.5 7.4 42 6.9 S 9 13 5 7 1011.7 1011.6 0.0
19/12:30am 21.2 18.4 7.1 40 7.2 S 11 13 6 7 1012.1 1012.0 0.0
19/12:00am 21.6 18.7 6.7 38 7.6 S 11 13 6 7 1012.4 1012.3 0.0
 
Date/Time
CDT
Temp
°C
App
Temp
°C
Dew
Point
°C
Rel
Hum
%
Delta-T
°C
Wind Press
QNH
hPa
Press
MSL
hPa
Rain since
9am
mm
Dir  Spd
km/h
Gust
km/h
Spd
kts
Gust
kts
18/11:30pm 22.1 19.2 6.3 36 8.0 S 11 15 6 8 1012.3 1012.2 0.0
18/11:00pm 22.6 19.6 6.0 34 8.4 SSE 11 15 6 8 1012.7 1012.6 0.0
18/10:30pm 23.3 19.4 5.2 31 9.1 S 15 20 8 11 1012.7 1012.6 0.0
18/10:00pm 23.8 19.1 5.2 30 9.4 S 19 26 10 14 1012.5 1012.4 0.0
18/09:30pm 24.6 19.7 4.9 28 9.9 S 20 26 11 14 1012.3 1012.2 0.0
18/09:00pm 25.6 20.6 4.7 26 10.5 S 20 28 11 15 1012.2 1012.1 0.0
18/08:30pm 26.5 22.0 4.3 24 11.2 SSE 17 20 9 11 1011.9 1011.8 0.0
18/08:00pm 27.4 22.2 3.8 22 11.8 SSE 20 28 11 15 1011.6 1011.5 0.0
18/07:30pm 28.2 22.2 3.1 20 12.5 SSE 24 32 13 17 1011.3 1011.2 0.0
18/07:00pm 28.8 22.3 2.9 19 12.9 SSE 26 33 14 18 1011.2 1011.1 0.0
18/06:30pm 29.7 23.7 3.6 19 13.3 SSE 24 37 13 20 1011.1 1011.0 0.0
18/06:00pm 29.9 23.5 3.0 18 13.5 SSE 26 37 14 20 1011.0 1010.9 0.0
18/05:30pm 30.8 25.3 3.8 18 13.9 SSE 22 33 12 18 1010.9 1010.8 0.0
18/05:00pm 30.5 24.7 4.3 19 13.5 S 24 35 13 19 1010.9 1010.8 0.0
18/04:30pm 30.8 25.9 5.3 20 13.4 S 20 30 11 16 1011.1 1011.0 0.0
18/04:00pm 30.7 25.4 5.2 20 13.4 SE 22 33 12 18 1011.4 1011.3 0.0
18/03:30pm 30.8 25.1 6.6 22 13.0 S 26 39 14 21 1011.6 1011.5 0.0
18/03:00pm 31.3 26.8 7.1 22 13.2 SSE 20 32 11 17 1011.7 1011.6 0.0
18/02:30pm 29.6 26.1 8.6 27 11.6 S 17 32 9 17 1012.2 1012.1 0.0
18/02:00pm 28.8 25.1 10.0 31 10.6 S 20 32 11 17 1012.6 1012.5 0.0
18/01:30pm 27.7 23.8 10.9 35 9.5 S 22 32 12 17 1013.0 1012.9 0.0
18/01:00pm 26.8 23.0 11.3 38 8.8 S 22 35 12 19 1013.2 1013.1 0.0
18/12:30pm 26.4 23.1 11.7 40 8.4 SSE 20 30 11 16 1013.7 1013.6 0.0
18/12:00pm 25.4 22.3 12.3 44 7.5 S 20 35 11 19 1013.9 1013.8 0.0
18/11:30am 25.5 22.3 12.0 43 7.7 S 20 33 11 18 1014.2 1014.1 0.0
18/11:00am 24.4 20.6 12.4 47 6.9 S 24 33 13 18 1014.5 1014.4 0.0
18/10:30am 24.3 20.5 12.3 47 6.9 S 24 35 13 19 1014.6 1014.5 0.0
18/10:00am 23.5 18.7 12.8 51 6.2 S 30 39 16 21 1014.6 1014.5 0.0
18/09:30am 22.2 18.5 12.7 55 5.4 S 24 35 13 19 1014.7 1014.6 0.0
18/09:00am 21.3 17.4 13.2 60 4.6 S 26 35 14 19 1014.8 1014.7 0.0
18/08:30am 20.6 17.1 13.3 63 4.2 SSW 24 32 13 17 1014.5 1014.4 0.0
18/08:00am 19.7 16.6 13.4 67 3.6 SSW 22 28 12 15 1014.0 1013.9 0.0
18/07:30am 19.0 16.2 13.2 69 3.3 SSW 20 28 11 15 1013.2 1013.1 0.0
18/07:00am 18.6 15.2 12.6 68 3.4 SSW 22 30 12 16 1012.3 1012.2 0.0
18/06:30am 18.6 16.0 11.9 65 3.7 SSW 17 22 9 12 1011.6 1011.5 0.0
18/06:00am 19.1 16.6 11.2 60 4.3 SSW 15 20 8 11 1011.0 1010.9 0.0
18/05:30am 19.7 17.9 10.9 57 4.8 SSW 11 15 6 8 1010.5 1010.4 0.0
18/05:03am 20.0 17.4 10.7 55 5.1 SSW 15 19 8 10 1010.0 1009.9 0.0
18/05:00am 20.0 17.4 10.7 55 5.1 SSW 15 19 8 10 1010.0 1009.9 0.0
18/04:45am 20.1 17.8 10.5 54 5.2 SSW 13 15 7 8 1009.7 1009.6 0.0
18/04:30am 20.4 18.1 10.5 53 5.4 S 13 17 7 9 1009.5 1009.4 0.0
18/04:00am 20.8 18.5 10.3 51 5.7 S 13 19 7 10 1009.4 1009.3 0.0
18/03:30am 21.1 18.3 10.0 49 6.0 S 15 20 8 11 1009.6 1009.5 0.0
18/03:00am 21.5 18.7 10.0 48 6.2 SSW 15 24 8 13 1009.7 1009.6 0.0
18/02:30am 22.1 18.5 9.9 46 6.6 SSW 19 26 10 14 1009.8 1009.7 0.0
18/02:00am 22.8 19.0 9.9 44 7.0 SSW 20 28 11 15 1009.6 1009.5 0.0
18/01:30am 23.5 19.6 9.5 41 7.6 SSW 20 28 11 15 1009.4 1009.3 0.0
18/01:00am 24.2 20.2 9.0 38 8.2 S 20 30 11 16 1009.1 1009.0 0.0
18/12:30am 25.0 20.5 8.5 35 8.9 S 22 37 12 20 1009.3 1009.2 0.0
18/12:00am 25.5 20.2 8.5 34 9.2 S 26 37 14 20 1009.2 1009.1 0.0
 
Date/Time
CDT
Temp
°C
App
Temp
°C
Dew
Point
°C
Rel
Hum
%
Delta-T
°C
Wind Press
QNH
hPa
Press
MSL
hPa
Rain since
9am
mm
Dir  Spd
km/h
Gust
km/h
Spd
kts
Gust
kts
17/11:30pm 26.6 21.5 7.6 30 10.2 SSW 24 41 13 22 1009.2 1009.1 0.0
17/11:00pm 28.7 21.6 5.5 23 12.1 SSW 32 43 17 23 1008.9 1008.8 0.0
17/10:49pm 29.7 23.4 5.7 22 12.6 SSW 28 46 15 25 1008.6 1008.5 0.0
17/10:30pm 31.3 24.3 4.2 18 14.1 SSW 30 43 16 23 1008.0 1007.9 0.0
17/10:00pm 33.6 26.9 1.4 13 16.1 SSW 26 39 14 21 1007.3 1007.2 0.0
17/09:30pm 35.0 29.2 0.2 11 17.3 SSW 20 28 11 15 1006.8 1006.7 0.0
17/09:00pm 36.2 30.4 -5.0 7 19.0 SW 17 22 9 12 1005.9 1005.8 0.0
17/08:30pm 37.0 31.4 -6.5 6 19.7 W 15 20 8 11 1005.0 1004.9 0.0
17/08:00pm 39.9 33.6 -9.7 4 21.8 WSW 17 24 9 13 1004.4 1004.3 0.0
17/07:30pm 41.8 35.5 -16.9 2 23.7 WSW 15 20 8 11 1003.9 1003.8 0.0
17/07:00pm 42.3 34.4 -24.5 1 24.3 W 22 32 12 17 1003.7 1003.6 0.0
17/06:30pm 42.8 35.5 -24.3 1 24.7 WNW 19 32 10 17 1003.6 1003.5 0.0
17/06:00pm 42.8 35.5 -24.3 1 24.7 WNW 19 28 10 15 1003.5 1003.4 0.0
17/05:30pm 43.0 35.5 -24.1 1 24.8 WSW 20 28 11 15 1003.6 1003.5 0.0
17/05:00pm 43.0 35.7 -24.1 1 24.7 WNW 19 28 10 15 1003.9 1003.8 0.0
17/04:30pm 42.7 34.8 -24.3 1 24.6 NW 22 41 12 22 1004.2 1004.1 0.0
17/04:00pm 43.0 34.7 -24.1 1 24.7 NNW 24 33 13 18 1004.6 1004.5 0.0
17/03:30pm 42.5 34.2 -24.5 1 24.5 WNW 24 37 13 20 1005.0 1004.9 0.0
17/03:00pm 42.3 33.3 -24.5 1 24.3 NW 28 41 15 22 1005.5 1005.4 0.0
17/02:59pm 42.4 33.4 -24.5 1 24.3 NW 28 41 15 22 1005.5 1005.4 0.0
17/02:30pm 41.9 34.9 -24.8 1 24.1 WNW 17 37 9 20 1005.7 1005.6 0.0
17/02:00pm 42.0 34.7 -24.7 1 24.1 WNW 19 33 10 18 1006.2 1006.1 0.0
17/01:30pm 41.4 33.1 -25.1 1 23.8 WNW 24 35 13 19 1006.8 1006.7 0.0
17/01:00pm 40.5 32.3 -12.9 3 22.5 NNW 26 41 14 22 1007.0 1006.9 0.0
17/12:30pm 39.9 31.5 -9.7 4 21.8 NW 28 37 15 20 1007.6 1007.5 0.0
17/12:01pm 39.7 31.3 -9.8 4 21.7 NW 28 46 15 25 1007.9 1007.8 0.0
17/12:00pm 39.4 30.6 -10.0 4 21.6 NW 30 46 16 25 1007.9 1007.8 0.0
17/11:57am 39.6 31.2 -9.9 4 21.6 NW 28 46 15 25 1007.9 1007.8 0.0
17/11:30am 38.8 32.3 -7.6 5 20.9 NNW 19 28 10 15 1008.3 1008.2 0.0
17/11:00am 37.3 31.4 -2.4 8 19.2 NNE 19 24 10 13 1008.6 1008.5 0.0
17/10:30am 35.8 29.7 -2.0 9 18.2 N 20 28 11 15 1008.9 1008.8 0.0
17/10:00am 34.4 29.9 -0.3 11 17.0 N 13 22 7 12 1009.1 1009.0 0.0
17/09:30am 31.8 27.5 1.0 14 15.2 NNW 13 20 7 11 1009.3 1009.2 0.0
17/09:00am 30.2 25.7 -0.2 14 14.5 NW 13 19 7 10 1009.5 1009.4 0.0
17/08:30am 28.6 24.2 0.3 16 13.5 NW 13 17 7 9 1009.5 1009.4 0.0

Other Formats:

Comma delimited format used in spreadsheet applications
http://www.bom.gov.au/fwo/IDS60801/IDS60801.95687.axf

JavaScript Object Notation format (JSON) in row-major order
http://www.bom.gov.au/fwo/IDS60801/IDS60801.95687.json